createdAt,value
2022-08-09T04:00:23.795Z,21.34
2022-08-09T04:05:32.276Z,21.24
2022-08-09T04:10:49.679Z,21.25
2022-08-09T04:16:19.474Z,21.33
2022-08-09T04:21:19.146Z,21.48
2022-08-09T04:26:23.607Z,21.62
2022-08-09T04:31:37.751Z,21.57
2022-08-09T04:36:52.787Z,21.74
2022-08-09T04:41:56.741Z,21.77
2022-08-09T04:47:04.572Z,21.96
2022-08-09T04:52:12.225Z,22.15
2022-08-09T04:57:26.191Z,22.41
2022-08-09T05:02:30.169Z,22.54
2022-08-09T05:07:36.495Z,22.70
2022-08-09T05:12:40.397Z,22.92
2022-08-09T05:18:37.906Z,23.19
2022-08-09T05:23:54.379Z,23.37
2022-08-09T05:28:34.084Z,23.51
2022-08-09T05:33:42.629Z,23.51
2022-08-09T05:38:48.710Z,23.62
2022-08-09T05:43:53.608Z,23.67
2022-08-09T05:48:58.844Z,24.02
2022-08-09T05:54:05.897Z,24.27
2022-08-09T05:59:10.542Z,24.47
2022-08-09T06:04:23.330Z,24.76
2022-08-09T06:09:54.445Z,24.88
2022-08-09T06:14:53.482Z,25.17
2022-08-09T06:19:57.453Z,25.48
2022-08-09T06:25:03.483Z,25.72
2022-08-09T06:30:09.844Z,25.94
2022-08-09T06:35:14.070Z,26.18
2022-08-09T06:40:23.855Z,26.18
2022-08-09T06:46:04.880Z,26.35
2022-08-09T06:50:53.651Z,26.57
2022-08-09T06:55:59.464Z,26.76
2022-08-09T07:01:03.226Z,27.06
2022-08-09T07:06:08.771Z,27.38
2022-08-09T07:11:17.612Z,27.71
2022-08-09T07:16:42.347Z,28.02
2022-08-09T07:21:55.972Z,28.15
2022-08-09T07:27:03.705Z,28.47
2022-08-09T07:32:15.208Z,28.73
2022-08-09T07:37:19.612Z,28.74
2022-08-09T07:42:32.780Z,29.04
2022-08-09T07:47:39.503Z,29.43
2022-08-09T07:52:55.997Z,29.75
2022-08-09T07:58:05.148Z,30.03
2022-08-09T08:03:18.081Z,30.37
2022-08-09T08:08:59.895Z,30.38
2022-08-09T08:13:56.823Z,30.69
2022-08-09T08:19:03.003Z,30.93
2022-08-09T08:24:12.028Z,31.14
2022-08-09T08:29:27.405Z,31.73
2022-08-09T08:34:33.460Z,31.96
2022-08-09T08:39:43.304Z,32.12
2022-08-09T08:44:53.398Z,32.22
2022-08-09T08:50:02.739Z,32.24
2022-08-09T08:55:08.251Z,32.47
2022-08-09T09:00:20.816Z,32.51
2022-08-09T09:05:57.682Z,32.57
2022-08-09T09:10:58.285Z,33.03
2022-08-09T09:16:04.509Z,32.85
2022-08-09T09:21:12.317Z,33.20
2022-08-09T09:26:18.492Z,33.37
2022-08-09T09:32:04.550Z,33.55
2022-08-09T09:36:53.156Z,33.52
2022-08-09T09:41:59.395Z,33.53
2022-08-09T09:47:09.945Z,33.76
2022-08-09T09:52:16.436Z,33.90
2022-08-09T09:58:00.846Z,33.95
2022-08-09T10:03:11.535Z,34.01
2022-08-09T10:08:27.842Z,34.19
2022-08-09T10:13:43.344Z,34.42
2022-08-09T10:18:54.784Z,34.56
2022-08-09T10:24:04.004Z,34.65
2022-08-09T10:29:22.799Z,34.70
2022-08-09T10:34:35.965Z,34.63
2022-08-09T10:39:49.439Z,35.08
2022-08-09T10:44:58.783Z,34.91
2022-08-09T10:50:14.802Z,34.78
2022-08-09T10:55:24.460Z,34.90
2022-08-09T11:00:41.831Z,34.87
2022-08-09T11:06:24.820Z,35.24
2022-08-09T11:12:07.338Z,35.70
2022-08-09T11:18:02.899Z,35.73
2022-08-09T11:23:10.570Z,35.63
2022-08-09T11:28:54.311Z,35.63
2022-08-09T11:34:08.076Z,35.52
2022-08-09T11:39:14.665Z,35.49
2022-08-09T11:44:21.412Z,35.41
2022-08-09T11:50:54.083Z,35.62
2022-08-09T11:55:39.880Z,35.49
2022-08-09T12:01:00.170Z,35.47
2022-08-09T12:06:12.687Z,35.13
2022-08-09T12:11:20.219Z,34.77
2022-08-09T12:16:30.497Z,34.41
2022-08-09T12:21:48.369Z,34.63
2022-08-09T12:28:59.124Z,35.05
2022-08-09T12:32:28.455Z,35.17
2022-08-09T12:37:44.130Z,35.11
2022-08-09T12:42:57.233Z,35.47
2022-08-09T12:48:01.792Z,35.30
2022-08-09T12:53:18.143Z,35.48
2022-08-09T12:58:27.992Z,35.34
2022-08-09T13:03:57.223Z,35.85
2022-08-09T13:09:06.248Z,35.62
2022-08-09T13:14:41.299Z,35.60
2022-08-09T13:20:08.865Z,34.28
2022-08-09T13:25:04.006Z,34.06
2022-08-09T13:30:50.516Z,34.63
2022-08-09T13:36:37.466Z,34.67
2022-08-09T13:41:45.743Z,34.70
2022-08-09T13:47:16.757Z,34.56
2022-08-09T13:52:21.451Z,34.71
2022-08-09T14:02:27.115Z,34.22
2022-08-09T14:07:42.012Z,34.10
2022-08-09T14:12:46.238Z,34.19
2022-08-09T14:18:16.681Z,33.96
2022-08-09T14:23:20.434Z,33.63
2022-08-09T14:28:40.920Z,33.57
2022-08-09T14:33:46.333Z,33.48
2022-08-09T14:38:58.733Z,33.41
2022-08-09T14:44:03.770Z,33.09
2022-08-09T14:49:10.523Z,33.25
2022-08-09T14:54:17.010Z,33.01
2022-08-09T14:59:27.481Z,32.83
2022-08-09T15:04:35.189Z,32.75
2022-08-09T15:10:04.634Z,32.52
2022-08-09T15:15:03.348Z,32.31
2022-08-09T15:20:15.151Z,32.10
2022-08-09T15:25:39.079Z,32.11
2022-08-09T15:30:57.324Z,32.01
2022-08-09T15:36:07.958Z,31.83
2022-08-09T15:41:13.533Z,31.65
2022-08-09T15:46:32.695Z,31.53
2022-08-09T15:52:01.996Z,31.45
2022-08-09T15:57:04.366Z,31.27
2022-08-09T16:02:13.427Z,31.08
2022-08-09T16:07:46.050Z,30.92
2022-08-09T16:12:53.900Z,30.75
2022-08-09T16:17:58.939Z,30.45
2022-08-09T16:23:04.458Z,30.25
2022-08-09T16:28:12.012Z,30.15
2022-08-09T16:33:17.426Z,30.08
2022-08-09T16:38:25.850Z,29.81
2022-08-09T16:43:30.011Z,29.64
2022-08-09T16:48:39.565Z,29.39
2022-08-09T16:59:23.057Z,29.11
2022-08-09T17:04:28.692Z,28.95
2022-08-09T17:09:46.274Z,28.80
2022-08-09T17:14:58.118Z,28.54
2022-08-09T17:20:28.975Z,28.25
2022-08-09T17:25:30.342Z,28.05
2022-08-09T17:30:35.486Z,27.89
2022-08-09T17:35:41.360Z,27.65
2022-08-09T17:40:49.463Z,27.46
2022-08-09T17:46:03.230Z,27.28
2022-08-09T17:51:19.654Z,27.17
2022-08-09T17:56:29.108Z,26.97
2022-08-09T18:01:58.034Z,26.92
2022-08-09T18:07:04.493Z,26.84
2022-08-09T18:12:40.307Z,26.81
2022-08-09T18:18:01.898Z,26.76
2022-08-09T18:23:07.694Z,26.66
2022-08-09T18:30:38.837Z,26.54
2022-08-09T18:33:53.082Z,26.42
2022-08-09T18:39:01.960Z,26.36
2022-08-09T18:44:12.962Z,26.34
2022-08-09T18:49:19.349Z,26.16
2022-08-09T18:54:29.445Z,26.05
2022-08-09T18:59:37.488Z,26.05
2022-08-09T19:05:14.959Z,25.92
2022-08-09T19:10:19.400Z,25.67
2022-08-09T19:15:26.048Z,25.64
2022-08-09T19:20:34.377Z,25.61
2022-08-09T19:26:01.853Z,25.58
2022-08-09T19:31:09.196Z,25.34
2022-08-09T19:36:13.628Z,25.14
2022-08-09T19:41:33.406Z,24.94
2022-08-09T19:46:50.564Z,24.74
2022-08-09T19:51:57.877Z,24.69
2022-08-09T19:57:02.204Z,24.76
2022-08-09T20:02:18.281Z,24.76
2022-08-09T20:07:56.627Z,24.69
2022-08-09T20:12:55.917Z,24.62
2022-08-09T20:18:08.245Z,24.70
2022-08-09T20:23:12.486Z,24.65
2022-08-09T20:28:28.205Z,24.54
2022-08-09T20:33:41.135Z,24.44
2022-08-09T20:44:12.668Z,24.27
2022-08-09T20:49:18.711Z,24.30
2022-08-09T20:54:24.777Z,24.27
2022-08-09T21:00:19.321Z,24.23
2022-08-09T21:05:56.843Z,24.29
2022-08-09T21:10:19.435Z,24.45
2022-08-09T21:15:34.167Z,24.35
2022-08-09T21:20:40.490Z,24.30
2022-08-09T21:25:59.946Z,24.31
2022-08-09T21:31:17.025Z,23.99
2022-08-09T21:36:28.505Z,23.78
2022-08-09T21:42:05.527Z,23.70
2022-08-09T21:47:01.878Z,23.81
2022-08-09T21:52:08.384Z,23.57
2022-08-09T21:57:36.882Z,23.56
2022-08-09T22:02:43.969Z,23.47
2022-08-09T22:07:56.666Z,23.43
2022-08-09T22:13:00.941Z,23.45
2022-08-09T22:18:12.660Z,23.33
2022-08-09T22:23:18.536Z,23.44
2022-08-09T22:28:32.550Z,23.07
2022-08-09T22:33:42.570Z,23.40
2022-08-09T22:38:54.580Z,23.12
2022-08-09T22:44:03.196Z,22.97
2022-08-09T22:49:10.008Z,22.88
2022-08-09T22:54:15.789Z,22.87
2022-08-09T22:59:57.047Z,22.78
2022-08-09T23:04:53.721Z,22.79
2022-08-09T23:09:59.998Z,22.64
2022-08-09T23:15:04.544Z,22.49
2022-08-09T23:20:09.776Z,22.64
2022-08-09T23:25:15.159Z,22.78
2022-08-09T23:30:20.460Z,22.67
2022-08-09T23:35:24.652Z,22.62
2022-08-09T23:40:29.978Z,22.60
2022-08-09T23:45:37.331Z,22.86
2022-08-09T23:50:42.884Z,22.69
2022-08-09T23:55:49.784Z,22.42
